createdAt,value
2018-04-13T00:02:50.879Z,23.70
2018-04-13T00:03:50.382Z,23.20
2018-04-13T00:05:46.334Z,24.40
2018-04-13T00:08:42.274Z,24.10
2018-04-13T00:11:38.671Z,25.10
2018-04-13T00:13:54.117Z,23.80
2018-04-13T00:16:48.566Z,23.40
2018-04-13T00:17:48.562Z,25.70
2018-04-13T00:19:45.500Z,25.10
2018-04-13T00:20:44.998Z,24.60
2018-04-13T00:22:40.447Z,25.60
2018-04-13T00:25:38.888Z,26.10
2018-04-13T00:28:36.327Z,24.90
2018-04-13T00:31:28.795Z,25.70
2018-04-13T00:32:28.299Z,25.30
2018-04-13T00:34:26.240Z,26.10
2018-04-13T00:35:24.743Z,24.80
2018-04-13T00:37:20.708Z,25.40
2018-04-13T00:38:18.705Z,25.50
2018-04-13T00:40:17.158Z,24.00
2018-04-13T00:43:10.632Z,24.70
2018-04-13T00:46:07.069Z,24.50
2018-04-13T00:49:04.005Z,25.50
2018-04-13T00:51:59.902Z,26.40
2018-04-13T00:54:55.850Z,25.60
2018-04-13T00:55:54.343Z,25.60
2018-04-13T00:57:51.269Z,27.10
2018-04-13T00:58:50.276Z,26.90
2018-04-13T01:00:48.232Z,28.60
2018-04-13T01:03:56.657Z,27.00
2018-04-13T01:06:39.098Z,26.90
2018-04-13T01:07:36.593Z,27.50
2018-04-13T01:09:34.032Z,26.70
2018-04-13T01:12:31.935Z,27.60
2018-04-13T01:13:28.923Z,28.00
2018-04-13T01:15:26.357Z,27.90
2018-04-13T01:16:24.368Z,28.50
2018-04-13T01:18:21.295Z,27.80
2018-04-13T01:21:19.746Z,27.60
2018-04-13T01:24:13.210Z,27.60
2018-04-13T01:26:29.135Z,28.80
2018-04-13T01:27:28.145Z,29.00
2018-04-13T01:29:25.564Z,29.90
2018-04-13T01:32:19.975Z,29.60
2018-04-13T01:35:16.448Z,29.70
2018-04-13T01:38:12.847Z,29.60
2018-04-13T01:41:06.851Z,28.90
2018-04-13T01:42:08.282Z,28.80
2018-04-13T01:44:04.212Z,28.80
2018-04-13T01:47:01.646Z,28.30
2018-04-13T01:47:58.717Z,27.80
2018-04-13T01:49:57.594Z,30.20
2018-04-13T01:50:56.096Z,31.00
2018-04-13T01:52:51.533Z,28.20
2018-04-13T01:53:51.529Z,27.80
2018-04-13T01:55:48.465Z,29.40
2018-04-13T01:56:47.464Z,28.20
2018-04-13T01:58:45.894Z,29.20
2018-04-13T01:59:43.393Z,29.30
2018-04-13T02:01:39.798Z,30.10
2018-04-13T02:02:39.302Z,29.20
2018-04-13T02:04:35.742Z,29.80
2018-04-13T02:05:35.731Z,29.40
2018-04-13T02:07:32.161Z,29.60
2018-04-13T02:10:28.106Z,29.90
2018-04-13T02:13:23.548Z,28.40
2018-04-13T02:14:23.546Z,28.40
2018-04-13T02:16:20.471Z,30.00
2018-04-13T02:17:19.476Z,30.40
2018-04-13T02:19:16.416Z,30.30
2018-04-13T02:20:14.909Z,30.40
2018-04-13T02:22:11.330Z,31.60
2018-04-13T02:23:10.830Z,31.40
2018-04-13T02:25:07.259Z,30.90
2018-04-13T02:28:02.690Z,31.20
2018-04-13T02:31:00.138Z,31.40
2018-04-13T02:33:55.568Z,31.30
2018-04-13T02:36:51.015Z,31.40
2018-04-13T02:39:09.463Z,30.80
2018-04-13T02:42:03.403Z,30.50
2018-04-13T02:44:20.357Z,31.10
2018-04-13T02:47:16.784Z,29.60
2018-04-13T02:50:11.227Z,31.00
2018-04-13T02:51:11.713Z,30.20
2018-04-13T02:53:08.663Z,30.70
2018-04-13T02:54:05.652Z,30.70
2018-04-13T02:56:03.089Z,31.40
2018-04-13T02:58:59.534Z,32.10
2018-04-13T03:01:52.937Z,32.30
2018-04-13T03:02:52.938Z,32.00
2018-04-13T03:04:50.870Z,31.30
2018-04-13T03:07:44.818Z,32.90
2018-04-13T03:10:40.754Z,31.50
2018-04-13T03:11:39.771Z,31.90
2018-04-13T03:13:39.189Z,32.70
2018-04-13T03:15:52.619Z,33.30
2018-04-13T03:18:48.059Z,35.10
2018-04-13T03:19:48.102Z,34.00
2018-04-13T03:21:44.956Z,34.80
2018-04-13T03:24:39.388Z,33.20
2018-04-13T03:27:35.825Z,33.30
2018-04-13T03:28:35.818Z,34.40
2018-04-13T03:30:31.253Z,35.00
2018-04-13T03:33:26.184Z,34.10
2018-04-13T03:34:26.682Z,34.40
2018-04-13T03:36:22.128Z,35.40
2018-04-13T03:39:18.562Z,35.70
2018-04-13T03:40:18.063Z,35.60
2018-04-13T03:42:14.458Z,35.30
2018-04-13T03:43:13.466Z,36.30
2018-04-13T03:45:09.903Z,35.50
2018-04-13T03:46:09.903Z,35.00
2018-04-13T03:48:09.331Z,34.50
2018-04-13T03:51:02.769Z,35.50
2018-04-13T03:52:01.267Z,35.00
2018-04-13T03:53:57.693Z,34.90
2018-04-13T03:56:53.656Z,35.70
2018-04-13T03:57:53.129Z,34.40
2018-04-13T03:59:50.068Z,37.10
2018-04-13T04:02:45.497Z,37.30
2018-04-13T04:05:41.430Z,36.00
2018-04-13T04:06:41.424Z,35.90
2018-04-13T04:08:36.872Z,35.60
2018-04-13T04:11:32.767Z,37.40
2018-04-13T04:14:28.707Z,35.30
2018-04-13T04:15:27.691Z,35.80
2018-04-13T04:17:23.140Z,34.00
2018-04-13T04:18:23.640Z,34.00
2018-04-13T04:20:19.569Z,35.70
2018-04-13T04:21:19.075Z,36.30
2018-04-13T04:23:15.996Z,32.50
2018-04-13T04:24:15.506Z,33.70
2018-04-13T04:26:12.530Z,33.00
2018-04-13T04:27:11.448Z,33.30
2018-04-13T04:29:09.375Z,31.10
2018-04-13T04:32:03.775Z,31.00
2018-04-13T04:34:58.724Z,31.50
2018-04-13T04:37:55.184Z,29.60
2018-04-13T04:38:53.681Z,30.30
2018-04-13T04:40:49.124Z,29.80
2018-04-13T04:41:49.611Z,29.10
2018-04-13T04:43:46.049Z,28.60
2018-04-13T04:44:44.554Z,28.20
2018-04-13T04:46:40.020Z,28.40
2018-04-13T04:49:36.439Z,27.40
2018-04-13T04:51:51.363Z,27.70
2018-04-13T04:54:09.306Z,27.60
2018-04-13T04:55:07.799Z,28.50
2018-04-13T04:57:03.757Z,27.90
2018-04-13T04:59:59.680Z,27.20
2018-04-13T05:02:16.623Z,29.80
2018-04-13T05:04:32.557Z,29.60
2018-04-13T05:07:30.509Z,28.50
2018-04-13T05:08:27.501Z,27.80
2018-04-13T05:10:23.950Z,27.90
2018-04-13T05:11:22.956Z,28.90
2018-04-13T05:13:18.888Z,29.70
2018-04-13T05:15:36.323Z,29.10
2018-04-13T05:16:35.322Z,29.30
2018-04-13T05:18:32.249Z,29.10
2018-04-13T05:19:30.756Z,29.60
2018-04-13T05:21:26.692Z,28.00
2018-04-13T05:24:22.627Z,28.20
2018-04-13T05:27:22.052Z,27.40
2018-04-13T05:28:19.051Z,27.20
2018-04-13T05:30:14.483Z,29.00
2018-04-13T05:31:14.490Z,27.90
2018-04-13T05:33:10.928Z,27.70
2018-04-13T05:36:08.339Z,29.40
2018-04-13T05:37:06.840Z,28.70
2018-04-13T05:39:02.773Z,29.30
2018-04-13T05:40:01.768Z,29.30
2018-04-13T05:41:58.188Z,27.70
2018-04-13T05:44:55.106Z,30.30
2018-04-13T05:45:54.600Z,29.90
2018-04-13T05:47:50.567Z,27.80
2018-04-13T05:50:06.998Z,29.90
2018-04-13T05:53:02.966Z,29.10
2018-04-13T05:54:01.963Z,30.30
2018-04-13T05:55:59.910Z,30.00
2018-04-13T05:56:57.913Z,29.10
2018-04-13T05:58:54.864Z,29.30
2018-04-13T06:01:10.264Z,30.70
2018-04-13T06:04:05.704Z,29.60
2018-04-13T06:07:02.146Z,27.80
2018-04-13T06:08:01.641Z,28.20
2018-04-13T06:10:08.072Z,26.60
2018-04-13T06:10:59.579Z,26.70
2018-04-13T06:12:56.021Z,26.90
2018-04-13T06:13:56.029Z,26.70
2018-04-13T06:15:52.959Z,26.70
2018-04-13T06:18:07.401Z,25.70
2018-04-13T06:21:04.832Z,25.30
2018-04-13T06:24:00.788Z,25.10
2018-04-13T06:24:59.784Z,24.50
2018-04-13T06:26:54.227Z,25.00
2018-04-13T06:27:53.719Z,25.60
2018-04-13T06:29:50.161Z,25.30
2018-04-13T06:30:50.157Z,26.90
2018-04-13T06:32:46.089Z,25.50
2018-04-13T06:33:46.088Z,25.70
2018-04-13T06:35:42.536Z,26.40
2018-04-13T06:37:57.524Z,24.90
2018-04-13T06:40:52.464Z,26.60
2018-04-13T06:41:51.456Z,25.00
2018-04-13T06:43:48.412Z,27.00
2018-04-13T06:44:47.409Z,26.50
2018-04-13T06:46:43.841Z,26.40
2018-04-13T06:47:43.338Z,24.70
2018-04-13T06:49:39.294Z,24.30
2018-04-13T06:50:39.296Z,23.80
2018-04-13T06:52:34.762Z,24.50
2018-04-13T06:55:32.691Z,27.00
2018-04-13T06:56:30.700Z,25.00
2018-04-13T06:58:27.639Z,24.50
2018-04-13T07:01:23.092Z,23.70
2018-04-13T07:04:19.039Z,23.90
2018-04-13T07:05:19.040Z,24.60
2018-04-13T07:07:14.972Z,23.90
2018-04-13T07:10:11.420Z,24.60
2018-04-13T07:11:10.428Z,23.50
2018-04-13T07:13:07.871Z,23.80
2018-04-13T07:16:03.327Z,23.30
2018-04-13T07:18:58.283Z,24.10
2018-04-13T07:21:55.689Z,25.20
2018-04-13T07:24:53.142Z,25.80
2018-04-13T07:27:46.591Z,26.70
2018-04-13T07:28:46.589Z,26.20
2018-04-13T07:32:16.425Z,25.80
2018-04-13T07:33:16.921Z,26.20
2018-04-13T07:35:13.869Z,25.60
2018-04-13T07:36:12.891Z,26.80
2018-04-13T07:38:08.301Z,25.90
2018-04-13T07:39:08.812Z,25.20
2018-04-13T07:41:05.751Z,27.30
2018-04-13T07:42:04.270Z,25.70
2018-04-13T07:44:00.721Z,25.20
2018-04-13T07:45:00.737Z,25.30
2018-04-13T07:46:57.675Z,28.00
2018-04-13T07:47:56.153Z,27.10
2018-04-13T07:49:52.099Z,28.30
2018-04-13T07:50:52.090Z,28.60
2018-04-13T07:52:48.061Z,30.40
2018-04-13T07:53:48.545Z,29.20
2018-04-13T07:55:44.028Z,30.40
2018-04-13T07:56:43.989Z,29.90
2018-04-13T07:58:39.911Z,30.40
2018-04-13T07:59:39.953Z,31.70
2018-04-13T08:01:35.877Z,30.20
2018-04-13T08:02:36.865Z,31.20
2018-04-13T08:04:31.836Z,34.50
2018-04-13T08:05:31.836Z,34.80
2018-04-13T08:07:28.284Z,33.30
2018-04-13T08:08:27.777Z,32.80
2018-04-13T08:10:25.460Z,33.10
2018-04-13T08:11:23.755Z,30.70
2018-04-13T08:13:20.246Z,30.40
2018-04-13T08:14:19.695Z,34.20
2018-04-13T08:16:15.669Z,31.70
2018-04-13T08:17:16.148Z,32.40
2018-04-13T08:19:12.606Z,36.90
2018-04-13T08:20:11.566Z,34.80
2018-04-13T08:22:09.021Z,35.70
2018-04-13T08:23:08.025Z,36.00
2018-04-13T08:25:03.991Z,36.00
2018-04-13T08:26:03.476Z,36.70
2018-04-13T08:27:59.416Z,37.80
2018-04-13T08:28:59.424Z,39.40
2018-04-13T08:30:56.414Z,41.90
2018-04-13T08:31:55.373Z,41.00
2018-04-13T08:33:51.321Z,42.10
2018-04-13T08:34:51.335Z,43.20
2018-04-13T08:36:49.809Z,42.20
2018-04-13T08:37:49.286Z,42.20
2018-04-13T08:39:45.241Z,40.30
2018-04-13T08:40:45.231Z,42.70
2018-04-13T08:42:41.178Z,45.80
2018-04-13T08:43:41.194Z,45.20
2018-04-13T08:45:37.662Z,49.80
2018-04-13T08:46:37.166Z,48.50
2018-04-13T08:48:33.149Z,48.30
2018-04-13T08:49:33.114Z,49.80
2018-04-13T08:51:29.062Z,48.50
2018-04-13T08:52:29.556Z,47.20
2018-04-13T08:54:24.966Z,49.10
2018-04-13T08:55:25.523Z,49.30
2018-04-13T08:57:20.980Z,48.50
2018-04-13T08:58:20.948Z,49.00
2018-04-13T09:00:17.896Z,48.60
2018-04-13T09:01:16.906Z,49.20
2018-04-13T09:03:13.362Z,49.10
2018-04-13T09:04:12.857Z,48.10
2018-04-13T09:06:09.320Z,42.00
2018-04-13T09:07:08.817Z,42.20
2018-04-13T09:09:04.784Z,41.50
2018-04-13T09:10:04.737Z,42.00
2018-04-13T09:12:00.711Z,41.20
2018-04-13T09:13:00.703Z,41.00
2018-04-13T09:14:56.631Z,39.80
2018-04-13T09:15:57.151Z,40.40
2018-04-13T09:17:56.022Z,39.30
2018-04-13T09:18:54.707Z,40.40
2018-04-13T09:20:50.663Z,41.20
2018-04-13T09:21:50.653Z,40.90
2018-04-13T09:23:47.610Z,41.00
2018-04-13T09:24:46.632Z,40.10
2018-04-13T09:26:42.630Z,39.50
2018-04-13T09:27:42.614Z,39.40
2018-04-13T09:29:39.053Z,40.30
2018-04-13T09:30:38.557Z,41.00
2018-04-13T09:32:34.509Z,38.20
2018-04-13T09:33:35.013Z,37.90
2018-04-13T09:35:30.452Z,39.70
2018-04-13T09:36:30.465Z,38.30
2018-04-13T09:38:27.439Z,35.00
2018-04-13T09:39:26.430Z,32.50
2018-04-13T09:41:22.360Z,29.90
2018-04-13T09:42:23.931Z,30.40
2018-04-13T09:44:18.845Z,31.40
2018-04-13T09:45:18.322Z,30.50
2018-04-13T09:47:14.800Z,25.80
2018-04-13T09:48:14.276Z,25.50
2018-04-13T09:50:10.215Z,24.60
2018-04-13T09:51:10.732Z,24.60
2018-04-13T09:53:06.186Z,24.80
2018-04-13T09:54:06.691Z,25.10
2018-04-13T09:56:02.132Z,25.90
2018-04-13T09:57:02.154Z,26.80
2018-04-13T09:58:58.082Z,26.50
2018-04-13T09:59:58.083Z,26.10
2018-04-13T10:01:54.053Z,26.90
2018-04-13T10:02:54.555Z,26.30
2018-04-13T10:04:50.017Z,24.00
2018-04-13T10:05:49.995Z,24.60
2018-04-13T10:07:47.967Z,22.90
2018-04-13T10:08:46.959Z,22.70
2018-04-13T10:10:42.618Z,20.30
2018-04-13T10:11:42.614Z,19.90
2018-04-13T10:13:38.067Z,17.20
2018-04-13T10:14:38.061Z,16.80
2018-04-13T10:16:35.522Z,15.50
2018-04-13T10:17:35.027Z,15.70
2018-04-13T10:19:30.042Z,16.10
2018-04-13T10:20:29.992Z,14.60
2018-04-13T10:22:25.973Z,13.10
2018-04-13T10:23:26.882Z,14.20
2018-04-13T10:25:21.931Z,14.20
2018-04-13T10:26:21.926Z,15.40
2018-04-13T10:28:17.912Z,14.30
2018-04-13T10:29:18.883Z,14.20
2018-04-13T10:31:13.887Z,12.20
2018-04-13T10:32:13.842Z,12.70
2018-04-13T10:34:09.832Z,12.50
2018-04-13T10:35:10.804Z,12.70
2018-04-13T10:37:06.786Z,11.70
2018-04-13T10:38:05.757Z,11.80
2018-04-13T10:40:02.722Z,11.50
2018-04-13T10:41:02.234Z,11.90
2018-04-13T10:42:56.687Z,12.10
2018-04-13T10:43:56.217Z,12.00
2018-04-13T10:45:53.188Z,12.70
2018-04-13T10:46:52.689Z,12.40
2018-04-13T10:48:48.076Z,11.80
2018-04-13T10:49:48.092Z,11.20
2018-04-13T10:51:44.073Z,11.10
2018-04-13T10:52:44.075Z,11.30
2018-04-13T10:54:40.012Z,11.40
2018-04-13T10:55:39.998Z,11.00
2018-04-13T10:57:35.973Z,11.80
2018-04-13T10:58:35.943Z,11.20
2018-04-13T11:00:31.892Z,10.90
2018-04-13T11:01:31.905Z,10.60
2018-04-13T11:03:28.375Z,11.40
2018-04-13T11:04:27.873Z,10.00
2018-04-13T11:06:24.836Z,11.40
2018-04-13T11:07:23.842Z,11.10
2018-04-13T11:09:20.295Z,10.30
2018-04-13T11:10:20.803Z,10.30
2018-04-13T11:12:16.272Z,9.00
2018-04-13T11:13:15.761Z,9.30
2018-04-13T11:15:12.720Z,10.60
2018-04-13T11:16:11.704Z,10.10
2018-04-13T11:18:07.670Z,9.70
2018-04-13T11:19:07.655Z,9.90
2018-04-13T11:21:04.165Z,10.50
2018-04-13T11:22:03.621Z,9.70
2018-04-13T11:24:00.080Z,9.40
2018-04-13T11:25:00.085Z,9.60
2018-04-13T11:26:56.541Z,9.50
2018-04-13T11:27:55.548Z,9.10
2018-04-13T11:29:50.011Z,9.80
2018-04-13T11:30:50.041Z,9.60
2018-04-13T11:32:46.994Z,9.80
2018-04-13T11:33:45.980Z,9.20
2018-04-13T11:35:41.902Z,9.60
2018-04-13T11:36:43.347Z,9.40
2018-04-13T11:38:38.372Z,8.80
2018-04-13T11:39:37.840Z,8.60
2018-04-13T11:41:34.374Z,7.70
2018-04-13T11:42:33.781Z,8.10
2018-04-13T11:44:29.761Z,7.70
2018-04-13T11:45:29.757Z,9.50
2018-04-13T11:47:25.679Z,7.90
2018-04-13T11:48:25.713Z,8.50
2018-04-13T11:50:22.161Z,7.10
2018-04-13T11:51:21.665Z,7.30
2018-04-13T11:53:17.621Z,7.40
2018-04-13T11:54:17.608Z,7.10
2018-04-13T11:56:15.075Z,7.70
2018-04-13T11:57:14.603Z,7.20
2018-04-13T11:59:11.551Z,7.80
2018-04-13T12:00:10.511Z,7.60
2018-04-13T12:02:07.490Z,7.30
2018-04-13T12:03:06.969Z,7.50
2018-04-13T12:05:02.478Z,7.20
2018-04-13T12:06:03.413Z,7.70
2018-04-13T12:08:00.437Z,6.90
2018-04-13T12:08:59.935Z,6.50
2018-04-13T12:10:58.901Z,7.00
2018-04-13T12:11:59.894Z,6.40
2018-04-13T12:13:53.375Z,7.30
2018-04-13T12:14:54.855Z,6.10
2018-04-13T12:16:49.320Z,5.00
2018-04-13T12:17:49.292Z,5.40
2018-04-13T12:19:48.758Z,5.60
2018-04-13T12:20:49.270Z,5.10
2018-04-13T12:22:43.309Z,6.60
2018-04-13T12:23:43.316Z,6.00
2018-04-13T12:25:39.281Z,5.40
2018-04-13T12:26:39.262Z,5.40
2018-04-13T12:28:35.720Z,5.30
2018-04-13T12:29:35.735Z,5.00
2018-04-13T12:31:32.140Z,6.00
2018-04-13T12:32:31.160Z,5.20
2018-04-13T12:34:29.108Z,4.80
2018-04-13T12:35:28.044Z,4.30
2018-04-13T12:37:24.613Z,5.10
2018-04-13T12:38:24.181Z,4.80
2018-04-13T12:40:20.099Z,5.70
2018-04-13T12:41:20.102Z,4.80
2018-04-13T12:43:16.038Z,4.70
2018-04-13T12:44:16.054Z,5.10
2018-04-13T12:46:12.038Z,4.40
2018-04-13T12:48:28.975Z,4.10
2018-04-13T12:49:28.908Z,4.20
2018-04-13T12:51:24.955Z,4.60
2018-04-13T12:52:25.384Z,4.70
2018-04-13T12:54:20.024Z,4.60
2018-04-13T12:55:19.923Z,5.00
2018-04-13T12:57:16.881Z,4.10
2018-04-13T12:59:31.877Z,4.40
2018-04-13T13:00:31.833Z,4.00
2018-04-13T13:02:27.826Z,4.50
2018-04-13T13:03:28.795Z,4.80
2018-04-13T13:05:22.304Z,4.70
2018-04-13T13:06:22.764Z,4.60
2018-04-13T13:08:18.220Z,4.80
2018-04-13T13:09:18.239Z,4.60
2018-04-13T13:11:14.709Z,5.30
2018-04-13T13:13:30.696Z,5.00
2018-04-13T13:14:31.096Z,4.70
2018-04-13T13:16:26.128Z,4.40
2018-04-13T13:17:26.613Z,4.80
2018-04-13T13:19:22.096Z,4.50
2018-04-13T13:20:22.051Z,4.60
2018-04-13T13:22:19.008Z,5.20
2018-04-13T13:24:34.483Z,5.00
2018-04-13T13:25:35.474Z,4.90
2018-04-13T13:27:30.458Z,5.20
2018-04-13T13:29:50.895Z,5.60
2018-04-13T13:30:50.900Z,5.10
2018-04-13T13:33:01.369Z,5.70
2018-04-13T13:35:14.834Z,5.80
2018-04-13T13:36:16.851Z,5.30
2018-04-13T13:38:19.332Z,5.90
2018-04-13T13:39:21.306Z,5.50
2018-04-13T13:41:14.763Z,6.00
2018-04-13T13:42:14.760Z,5.30
2018-04-13T13:44:10.727Z,5.60
2018-04-13T13:45:12.232Z,5.50
2018-04-13T13:47:07.704Z,5.70
2018-04-13T13:48:07.698Z,6.10
2018-04-13T13:50:01.166Z,5.50
2018-04-13T13:51:00.661Z,5.20
2018-04-13T13:52:57.168Z,5.40
2018-04-13T13:53:56.109Z,5.10
2018-04-13T13:56:01.596Z,5.40
2018-04-13T13:57:02.578Z,4.80
2018-04-13T13:58:58.536Z,6.40
2018-04-13T13:59:58.060Z,5.80
2018-04-13T14:01:53.994Z,6.10
2018-04-13T14:02:53.986Z,6.10
2018-04-13T14:04:50.454Z,5.60
2018-04-13T14:05:49.440Z,5.20
2018-04-13T14:07:45.437Z,5.50
2018-04-13T14:08:45.400Z,5.70
2018-04-13T14:10:49.853Z,5.90
2018-04-13T14:11:42.880Z,5.70
2018-04-13T14:13:37.305Z,5.30
2018-04-13T14:14:37.311Z,5.90
2018-04-13T14:16:34.791Z,6.00
2018-04-13T14:17:33.270Z,5.80
2018-04-13T14:19:29.724Z,6.40
2018-04-13T14:20:29.215Z,6.70
2018-04-13T14:22:27.686Z,5.70
2018-04-13T14:23:27.286Z,6.00
2018-04-13T14:25:23.293Z,6.30
2018-04-13T14:27:39.224Z,6.20
2018-04-13T14:28:39.713Z,6.50
2018-04-13T14:30:35.683Z,6.70
2018-04-13T14:31:35.196Z,6.90
2018-04-13T14:33:31.198Z,6.20
2018-04-13T14:34:31.189Z,6.70
2018-04-13T14:36:29.137Z,6.20
2018-04-13T14:37:28.136Z,6.40
2018-04-13T14:39:21.611Z,6.30
2018-04-13T14:40:20.683Z,6.50
2018-04-13T14:42:16.658Z,7.20
2018-04-13T14:43:16.653Z,6.80
2018-04-13T14:45:13.130Z,6.60
2018-04-13T14:46:12.618Z,6.60
2018-04-13T14:48:09.102Z,6.60
2018-04-13T14:49:08.581Z,6.60
2018-04-13T14:51:05.544Z,6.90
2018-04-13T14:52:05.552Z,6.40
2018-04-13T14:54:02.454Z,6.20
2018-04-13T14:55:00.520Z,6.10
2018-04-13T14:56:56.489Z,5.90
2018-04-13T14:57:56.474Z,6.10
2018-04-13T14:59:52.456Z,5.00
2018-04-13T15:00:52.438Z,5.30
2018-04-13T15:02:50.899Z,5.20
2018-04-13T15:03:50.403Z,5.10
2018-04-13T15:05:46.851Z,5.30
2018-04-13T15:06:46.358Z,4.50
2018-04-13T15:08:43.238Z,4.90
2018-04-13T15:09:42.329Z,5.50
2018-04-13T15:11:38.314Z,4.30
2018-04-13T15:12:38.287Z,4.70
2018-04-13T15:14:38.260Z,4.80
2018-04-13T15:15:36.401Z,5.00
2018-04-13T15:17:33.357Z,4.70
2018-04-13T15:18:33.408Z,4.90
2018-04-13T15:20:29.320Z,5.20
2018-04-13T15:21:28.819Z,4.60
2018-04-13T15:23:25.841Z,5.00
2018-04-13T15:24:24.327Z,7.00
2018-04-13T15:26:21.251Z,5.00
2018-04-13T15:27:20.261Z,4.70
2018-04-13T15:29:18.315Z,4.90
2018-04-13T15:30:18.301Z,4.30
2018-04-13T15:32:15.250Z,4.90
2018-04-13T15:33:15.271Z,5.10
2018-04-13T15:35:10.271Z,5.20
2018-04-13T15:37:24.725Z,5.10
2018-04-13T15:38:24.715Z,5.30
2018-04-13T15:40:21.177Z,5.10
2018-04-13T15:41:20.663Z,5.40
2018-04-13T15:43:17.615Z,6.20
2018-04-13T15:44:17.119Z,6.10
2018-04-13T15:46:13.561Z,5.60
2018-04-13T15:47:12.579Z,5.70
2018-04-13T15:49:08.506Z,5.80
2018-04-13T15:50:09.047Z,6.00
2018-04-13T15:52:04.951Z,5.80
2018-04-13T15:53:04.462Z,5.90
2018-04-13T15:55:01.405Z,5.90
2018-04-13T15:56:00.416Z,5.70
2018-04-13T15:57:56.863Z,6.40
2018-04-13T15:58:56.871Z,6.30
2018-04-13T16:00:53.307Z,6.10
2018-04-13T16:01:52.807Z,6.60
2018-04-13T16:03:48.785Z,6.40
2018-04-13T16:04:48.372Z,5.80
2018-04-13T16:06:45.264Z,6.60
2018-04-13T16:07:44.221Z,6.50
2018-04-13T16:09:41.182Z,6.20
2018-04-13T16:10:40.679Z,6.50
2018-04-13T16:12:36.159Z,6.30
2018-04-13T16:13:36.151Z,6.90
2018-04-13T16:15:32.088Z,6.10
2018-04-13T16:16:32.076Z,6.60
2018-04-13T16:18:28.085Z,6.20
2018-04-13T16:19:28.055Z,6.10
2018-04-13T16:21:24.511Z,6.30
2018-04-13T16:22:24.039Z,6.10
2018-04-13T16:24:21.482Z,6.20
2018-04-13T16:25:20.481Z,6.30
2018-04-13T16:27:16.942Z,6.60
2018-04-13T16:28:15.947Z,6.20
2018-04-13T16:30:13.403Z,6.00
2018-04-13T16:31:11.891Z,7.10
2018-04-13T16:33:10.903Z,6.80
2018-04-13T16:34:09.954Z,7.20
2018-04-13T16:36:06.413Z,6.20
2018-04-13T16:37:05.903Z,6.50
2018-04-13T16:39:04.378Z,6.30
2018-04-13T16:40:03.832Z,5.70
2018-04-13T16:41:59.779Z,6.30
2018-04-13T16:43:00.291Z,6.30
2018-04-13T16:44:56.260Z,6.80
2018-04-13T16:45:56.230Z,6.70
2018-04-13T16:47:53.194Z,6.40
2018-04-13T16:48:51.723Z,6.00
2018-04-13T16:50:49.158Z,6.20
2018-04-13T16:51:48.647Z,6.50
2018-04-13T16:53:43.673Z,7.00
2018-04-13T16:54:44.662Z,7.10
2018-04-13T16:56:39.620Z,7.10
2018-04-13T16:57:39.632Z,6.40
2018-04-13T16:59:36.076Z,7.00
2018-04-13T17:00:35.540Z,7.30
2018-04-13T17:02:32.489Z,7.60
2018-04-13T17:03:31.483Z,6.90
2018-04-13T17:05:27.462Z,7.00
2018-04-13T17:06:27.434Z,7.00
2018-04-13T17:08:23.919Z,7.20
2018-04-13T17:09:23.381Z,7.30
2018-04-13T17:11:19.863Z,7.50
2018-04-13T17:12:19.342Z,7.90
2018-04-13T17:14:17.364Z,7.20
2018-04-13T17:15:18.873Z,7.70
2018-04-13T17:17:15.269Z,6.90
2018-04-13T17:18:17.281Z,7.30
2018-04-13T17:20:13.244Z,7.80
2018-04-13T17:21:13.225Z,8.10
2018-04-13T17:23:10.204Z,9.30
2018-04-13T17:24:10.209Z,8.60
2018-04-13T17:26:06.186Z,8.00
2018-04-13T17:27:06.153Z,8.00
2018-04-13T17:29:05.630Z,8.90
2018-04-13T17:30:04.239Z,9.10
2018-04-13T17:32:00.229Z,8.60
2018-04-13T17:33:01.201Z,8.70
2018-04-13T17:34:56.684Z,8.80
2018-04-13T17:35:56.210Z,8.70
2018-04-13T17:37:52.170Z,8.00
2018-04-13T17:38:52.151Z,8.90
2018-04-13T17:40:48.663Z,10.10
2018-04-13T17:41:48.610Z,9.80
2018-04-13T17:43:51.579Z,9.30
2018-04-13T17:44:49.571Z,9.60
2018-04-13T17:46:45.558Z,10.70
2018-04-13T17:47:44.497Z,10.90
2018-04-13T17:49:40.483Z,9.10
2018-04-13T17:50:40.465Z,9.30
2018-04-13T17:52:39.419Z,8.80
2018-04-13T17:53:38.926Z,9.90
2018-04-13T17:55:34.380Z,9.30
2018-04-13T17:56:34.508Z,9.60
2018-04-13T17:58:32.865Z,10.50
2018-04-13T17:59:32.469Z,9.10
2018-04-13T18:01:31.448Z,9.60
2018-04-13T18:02:30.933Z,10.00
2018-04-13T18:04:29.364Z,9.40
2018-04-13T18:05:28.860Z,9.30
2018-04-13T18:07:24.332Z,10.40
2018-04-13T18:08:24.320Z,9.70
2018-04-13T18:10:21.262Z,8.50
2018-04-13T18:11:20.772Z,8.20
2018-04-13T18:13:16.754Z,9.10
2018-04-13T18:14:17.226Z,8.10
2018-04-13T18:16:12.714Z,7.80
2018-04-13T18:17:12.189Z,7.70
2018-04-13T18:19:08.106Z,8.80
2018-04-13T18:20:08.651Z,8.00
2018-04-13T18:22:06.600Z,7.50
2018-04-13T18:23:06.177Z,7.50
2018-04-13T18:25:03.637Z,7.90
2018-04-13T18:26:02.145Z,7.40
2018-04-13T18:27:58.592Z,8.00
2018-04-13T18:28:58.091Z,8.00
2018-04-13T18:30:54.073Z,8.20
2018-04-13T18:31:54.056Z,8.30
2018-04-13T18:33:53.006Z,7.20
2018-04-13T18:34:52.522Z,7.60
2018-04-13T18:36:50.112Z,8.00
2018-04-13T18:37:50.073Z,8.20
2018-04-13T18:39:48.553Z,8.60
2018-04-13T18:40:48.142Z,8.60
2018-04-13T18:42:44.128Z,9.00
2018-04-13T18:43:44.614Z,9.20
2018-04-13T18:45:40.066Z,8.40
2018-04-13T18:46:40.550Z,8.40
2018-04-13T18:48:38.071Z,7.60
2018-04-13T18:49:39.018Z,7.90
2018-04-13T18:51:36.149Z,8.10
2018-04-13T18:52:37.037Z,8.20
2018-04-13T18:54:35.122Z,9.00
2018-04-13T18:55:34.128Z,8.50
2018-04-13T18:57:32.069Z,9.10
2018-04-13T18:58:32.058Z,9.50
2018-04-13T19:00:28.545Z,8.30
2018-04-13T19:01:28.006Z,8.20
2018-04-13T19:03:23.981Z,8.60
2018-04-13T19:04:23.964Z,8.60
2018-04-13T19:06:19.943Z,9.10
2018-04-13T19:07:20.451Z,8.60
2018-04-13T19:09:15.863Z,9.10
2018-04-13T19:10:15.850Z,9.30
2018-04-13T19:12:14.302Z,10.10
2018-04-13T19:13:13.819Z,12.10
2018-04-13T19:15:11.730Z,12.00
2018-04-13T19:16:13.241Z,10.00
2018-04-13T19:18:09.698Z,8.60
2018-04-13T19:19:10.179Z,8.80
2018-04-13T19:21:07.624Z,9.80
2018-04-13T19:22:07.623Z,9.10
2018-04-13T19:24:06.590Z,11.70
2018-04-13T19:25:07.575Z,10.50
2018-04-13T19:27:02.174Z,9.60
2018-04-13T19:28:01.644Z,10.00
2018-04-13T19:29:58.525Z,8.90
2018-04-13T19:30:58.519Z,8.70
2018-04-13T19:32:55.517Z,8.40
2018-04-13T19:33:56.064Z,7.90
2018-04-13T19:35:55.499Z,8.80
2018-04-13T19:36:53.597Z,8.80
2018-04-13T19:38:49.559Z,9.10
2018-04-13T19:39:49.519Z,8.90
2018-04-13T19:41:45.464Z,9.00
2018-04-13T19:42:45.487Z,9.80
2018-04-13T19:44:43.421Z,10.90
2018-04-13T19:45:41.411Z,10.00
2018-04-13T19:47:39.892Z,9.60
2018-04-13T19:48:39.374Z,9.80
2018-04-13T19:50:37.896Z,10.20
2018-04-13T19:51:37.821Z,10.40
2018-04-13T19:53:36.291Z,11.40
2018-04-13T19:54:35.264Z,11.20
2018-04-13T19:56:33.251Z,12.00
2018-04-13T19:57:33.245Z,12.20
2018-04-13T19:59:31.190Z,12.60
2018-04-13T20:00:32.668Z,11.80
2018-04-13T20:02:29.641Z,11.90
2018-04-13T20:03:30.141Z,11.90
2018-04-13T20:05:28.119Z,11.30
2018-04-13T20:06:27.683Z,10.20
2018-04-13T20:08:23.156Z,10.40
2018-04-13T20:09:23.170Z,9.30
2018-04-13T20:11:19.097Z,11.10
2018-04-13T20:12:19.580Z,10.60
2018-04-13T20:14:17.031Z,10.10
2018-04-13T20:15:17.032Z,9.70
2018-04-13T20:17:15.024Z,10.60
2018-04-13T20:18:15.043Z,9.70
2018-04-13T20:20:12.981Z,10.20
2018-04-13T20:21:13.889Z,10.20
2018-04-13T20:23:11.432Z,9.50
2018-04-13T20:24:10.924Z,10.30
2018-04-13T20:26:06.954Z,10.70
2018-04-13T20:28:26.861Z,9.60
2018-04-13T20:29:25.863Z,9.30
2018-04-13T20:31:23.935Z,11.30
2018-04-13T20:32:22.896Z,10.60
2018-04-13T20:34:20.872Z,11.10
2018-04-13T20:35:20.369Z,11.00
2018-04-13T20:37:19.294Z,11.10
2018-04-13T20:38:17.815Z,10.80
2018-04-13T20:40:16.309Z,11.20
2018-04-13T20:41:15.897Z,10.70
2018-04-13T20:43:11.859Z,11.80
2018-04-13T20:44:12.856Z,11.70
2018-04-13T20:46:12.370Z,12.10
2018-04-13T20:47:09.929Z,12.60
2018-04-13T20:49:09.389Z,12.50
2018-04-13T20:50:09.368Z,12.40
2018-04-13T20:52:05.929Z,11.10
2018-04-13T20:53:05.893Z,11.30
2018-04-13T20:55:05.854Z,11.00
2018-04-13T20:56:03.836Z,10.60
2018-04-13T20:58:02.802Z,11.80
2018-04-13T20:59:01.780Z,11.80
2018-04-13T21:00:59.743Z,10.90
2018-04-13T21:02:00.731Z,10.10
2018-04-13T21:03:59.272Z,10.60
2018-04-13T21:04:57.803Z,11.00
2018-04-13T21:06:54.762Z,10.70
2018-04-13T21:07:53.765Z,11.40
2018-04-13T21:09:52.222Z,12.90
2018-04-13T21:10:51.695Z,13.00
2018-04-13T21:12:47.631Z,12.70
2018-04-13T21:13:49.165Z,12.70
2018-04-13T21:15:43.629Z,13.00